Time;durP1;ratioP1;P1;durP2;ratioP2;P2;SDS_P1;SDS_P2;PMS_P1;PMS_P2;Temp;Humidity;BMP_temperature;BMP_pressure;BME280_temperature;BME280_humidity;BME280_pressure;Samples;Min_cycle;Max_cycle;Signal;HPM_P1;HPM_P2
2023/05/18 00:00:10;;;;;;;;;7.00;5.00;;;;;13.32;53.14;102073.53;4938905;28;46464;-73
2023/05/18 00:02:36;;;;;;;;;7.00;5.67;;;;;13.22;53.63;102064.63;4937460;28;46586;-72
2023/05/18 00:05:02;;;;;;;;;5.33;5.00;;;;;13.26;53.60;102071.41;4939062;28;45502;-72
2023/05/18 00:07:32;;;;;;;;;8.00;6.00;;;;;13.20;53.71;102063.88;4939022;28;45562;-72
2023/05/18 00:09:58;;;;;;;;;7.00;6.00;;;;;13.18;53.97;102061.34;4938418;28;45888;-72
2023/05/18 00:12:23;;;;;;;;;8.67;5.00;;;;;13.12;54.05;102053.81;4937098;28;45344;-71
2023/05/18 00:14:49;;;;;;;;;7.00;6.00;;;;;13.02;54.14;102039.56;4937387;28;45368;-72
2023/05/18 00:17:14;;;;;;;;;8.00;4.67;;;;;13.01;54.27;102035.16;4938867;28;45438;-72
2023/05/18 00:19:40;;;;;;;;;5.67;5.33;;;;;12.91;54.01;102034.25;4937287;28;48510;-72
2023/05/18 00:22:06;;;;;;;;;5.67;2.67;;;;;13.01;54.35;102056.53;4938533;28;45437;-71
2023/05/18 00:24:32;;;;;;;;;7.00;6.67;;;;;13.04;54.29;102059.81;4937382;28;45253;-71
2023/05/18 00:26:57;;;;;;;;;7.67;5.33;;;;;12.92;53.96;102034.13;4938050;28;45634;-71
2023/05/18 00:29:22;;;;;;;;;6.33;6.33;;;;;13.05;53.98;102045.50;4941836;28;45589;-71
2023/05/18 00:31:48;;;;;;;;;8.33;5.67;;;;;12.98;54.17;102038.94;4941899;28;45195;-72
2023/05/18 00:34:14;;;;;;;;;7.33;7.00;;;;;13.04;54.23;102065.16;4942063;28;45160;-72
2023/05/18 00:36:40;;;;;;;;;4.00;4.00;;;;;12.95;54.39;102065.91;4942214;28;45481;-72
2023/05/18 00:39:10;;;;;;;;;6.00;6.00;;;;;12.80;54.48;102022.63;4941649;28;45375;-71
2023/05/18 00:41:36;;;;;;;;;10.00;5.33;;;;;12.96;54.25;102046.25;4940777;28;46084;-72
2023/05/18 00:44:03;;;;;;;;;6.00;5.00;;;;;12.90;54.53;102062.78;4941722;28;45434;-71
2023/05/18 00:46:28;;;;;;;;;6.00;6.00;;;;;12.63;54.76;102031.22;4942072;28;45218;-72
2023/05/18 00:48:58;;;;;;;;;8.33;6.00;;;;;12.82;54.99;102062.56;4941249;28;51933;-72
2023/05/18 00:51:24;;;;;;;;;9.33;7.33;;;;;12.79;54.95;102060.13;4941644;28;45445;-71
2023/05/18 00:53:51;;;;;;;;;6.00;6.00;;;;;12.62;55.56;102042.00;4940382;28;45339;-72
2023/05/18 00:56:17;;;;;;;;;4.00;4.00;;;;;12.70;55.17;102060.91;4941811;28;45358;-71
2023/05/18 00:58:43;;;;;;;;;7.33;5.00;;;;;12.66;55.36;102054.13;4941362;28;46526;-71
2023/05/18 01:01:09;;;;;;;;;8.00;6.00;;;;;12.68;55.50;102068.19;4940288;28;45645;-71
2023/05/18 01:03:38;;;;;;;;;7.00;6.67;;;;;12.56;56.10;102056.69;4941641;28;45418;-72
2023/05/18 01:06:04;;;;;;;;;8.33;6.00;;;;;12.51;56.30;102071.38;4941754;28;45425;-72
2023/05/18 01:08:31;;;;;;;;;8.33;7.00;;;;;12.21;56.10;102024.84;4940119;28;46298;-72
2023/05/18 01:11:10;;;;;;;;;4.67;4.33;;;;;12.39;56.20;102042.03;4941643;28;45635;-72
2023/05/18 01:13:52;;;;;;;;;4.67;4.67;;;;;12.40;56.16;102043.72;4939876;28;45277;-72
2023/05/18 01:16:25;;;;;;;;;6.33;6.33;;;;;12.52;55.94;102046.38;4941780;28;45477;-72
2023/05/18 01:19:17;;;;;;;;;5.33;5.00;;;;;12.55;55.98;102070.13;4941111;28;47050;-71
2023/05/18 01:22:20;;;;;;;;;7.33;7.33;;;;;12.53;56.72;102066.75;4941098;28;45518;-72
2023/05/18 01:24:48;;;;;;;;;4.67;4.67;;;;;12.18;56.27;102017.09;4941325;28;45260;-72
2023/05/18 01:27:17;;;;;;;;;7.00;5.33;;;;;12.43;56.85;102064.84;4941216;28;45315;-72
2023/05/18 01:29:45;;;;;;;;;7.00;6.00;;;;;12.12;57.01;102005.13;4940881;28;45888;-71
2023/05/18 01:32:20;;;;;;;;;8.00;6.67;;;;;12.43;56.71;102075.50;4941028;28;45370;-71
2023/05/18 01:34:46;;;;;;;;;7.00;7.00;;;;;12.37;56.74;102053.81;4941260;28;45284;-71
2023/05/18 01:37:12;;;;;;;;;7.33;4.00;;;;;12.42;56.75;102054.31;4940070;28;45345;-72
2023/05/18 01:39:38;;;;;;;;;6.00;6.00;;;;;12.50;56.54;102065.19;4939683;28;45756;-72
2023/05/18 01:42:10;;;;;;;;;7.67;6.00;;;;;12.32;57.20;102048.84;4940835;28;45336;-72
2023/05/18 01:44:44;;;;;;;;;8.33;5.67;;;;;12.51;56.35;102071.38;4941090;28;45324;-72
2023/05/18 01:47:14;;;;;;;;;6.33;6.33;;;;;12.45;56.55;102046.91;4941062;28;45223;-72
2023/05/18 01:50:02;;;;;;;;;8.00;6.67;;;;;12.07;56.62;101996.66;4939446;28;47597;-72
2023/05/18 01:52:41;;;;;;;;;6.33;6.33;;;;;12.63;56.15;102081.06;4939460;28;46424;-72
2023/05/18 01:55:09;;;;;;;;;7.33;7.33;;;;;12.54;56.36;102085.31;4940900;28;45321;-72
2023/05/18 01:57:38;;;;;;;;;4.00;4.00;;;;;12.54;56.79;102084.44;4939554;28;45494;-72
2023/05/18 02:00:06;;;;;;;;;10.33;7.67;;;;;12.49;57.25;102080.34;4940211;28;48111;-72
2023/05/18 02:02:32;;;;;;;;;11.00;7.67;;;;;12.15;57.38;102049.34;4940533;28;45201;-72
2023/05/18 02:04:57;;;;;;;;;7.33;6.67;;;;;12.35;57.25;102067.25;4940721;28;45362;-72
2023/05/18 02:07:23;;;;;;;;;10.33;8.00;;;;;12.23;56.87;102038.94;4940959;28;45377;-72
2023/05/18 02:09:48;;;;;;;;;6.33;5.67;;;;;12.36;57.70;102079.63;4940462;28;46805;-72
2023/05/18 02:12:13;;;;;;;;;7.67;5.00;;;;;12.29;57.55;102075.75;4940221;28;45561;-72
2023/05/18 02:14:39;;;;;;;;;6.67;6.00;;;;;12.36;57.46;102074.28;4940581;28;45319;-72
2023/05/18 02:17:05;;;;;;;;;7.67;7.67;;;;;12.25;57.90;102060.13;4940683;28;45438;-71
2023/05/18 02:19:31;;;;;;;;;5.67;5.67;;;;;12.38;57.58;102076.84;4940372;28;45814;-71
2023/05/18 02:21:56;;;;;;;;;7.00;5.67;;;;;12.36;57.59;102087.63;4940292;28;45268;-72
2023/05/18 02:24:23;;;;;;;;;6.00;3.00;;;;;12.23;57.68;102057.59;4940347;28;45449;-72
2023/05/18 02:26:49;;;;;;;;;7.67;7.67;;;;;12.39;57.36;102084.72;4940576;28;45479;-71
2023/05/18 02:29:15;;;;;;;;;8.67;7.33;;;;;12.40;56.88;102081.06;4938619;28;46720;-72
2023/05/18 02:31:41;;;;;;;;;10.67;7.00;;;;;12.32;56.80;102059.50;4939998;28;45245;-72
2023/05/18 02:34:07;;;;;;;;;9.67;6.00;;;;;12.17;57.21;102032.25;4940331;28;45301;-72
2023/05/18 02:36:36;;;;;;;;;8.33;7.67;;;;;12.43;56.48;102070.19;4940350;28;45499;-72
2023/05/18 02:39:05;;;;;;;;;5.33;5.33;;;;;12.42;56.37;102088.97;4939934;28;46533;-72
2023/05/18 02:41:31;;;;;;;;;14.00;10.00;;;;;11.73;57.32;101987.78;4938577;28;45317;-71
2023/05/18 02:43:56;;;;;;;;;8.33;7.00;;;;;12.35;57.35;102090.41;4939931;28;45458;-71
2023/05/18 02:46:22;;;;;;;;;8.00;5.67;;;;;11.70;57.05;101982.72;4940316;28;45439;-71
2023/05/18 02:48:47;;;;;;;;;9.33;7.67;;;;;12.34;56.96;102092.25;4939738;28;46069;-71
2023/05/18 02:51:12;;;;;;;;;8.00;7.33;;;;;12.18;57.21;102068.59;4938886;28;64027;-71
2023/05/18 02:53:38;;;;;;;;;8.33;8.33;;;;;12.28;57.24;102092.75;4938615;28;45461;-72
2023/05/18 02:56:04;;;;;;;;;11.00;8.00;;;;;12.12;57.37;102065.59;4940113;28;45584;-72
2023/05/18 02:58:29;;;;;;;;;12.00;9.33;;;;;11.92;57.83;102043.19;4954834;28;47562;-71
2023/05/18 03:00:55;;;;;;;;;10.00;10.00;;;;;12.20;57.72;102089.81;4940031;28;45469;-71
2023/05/18 03:03:22;;;;;;;;;8.67;7.00;;;;;12.18;57.84;102083.75;4939081;28;45434;-71
2023/05/18 03:05:51;;;;;;;;;9.00;7.00;;;;;12.14;57.91;102079.66;4940002;28;45227;-71
2023/05/18 03:08:18;;;;;;;;;8.00;6.00;;;;;12.13;57.52;102094.78;4939535;28;46991;-72
2023/05/18 03:10:44;;;;;;;;;10.67;9.67;;;;;11.98;57.78;102058.69;4939791;28;45468;-72
2023/05/18 03:13:09;;;;;;;;;10.33;8.67;;;;;12.11;58.12;102085.22;4939652;28;45350;-71
2023/05/18 03:15:36;;;;;;;;;11.00;8.33;;;;;12.07;57.97;102068.63;4939253;28;50921;-72
2023/05/18 03:18:01;;;;;;;;;7.33;7.33;;;;;12.11;57.80;102071.88;4939696;28;45555;-72
2023/05/18 03:20:28;;;;;;;;;8.67;7.00;;;;;12.00;57.73;102066.53;4937739;28;45323;-71
2023/05/18 03:22:54;;;;;;;;;8.67;8.00;;;;;10.98;57.98;101894.28;4939886;28;45445;-72
2023/05/18 03:25:19;;;;;;;;;8.00;8.00;;;;;11.84;58.38;102046.47;4939811;28;45331;-71
2023/05/18 03:27:44;;;;;;;;;12.00;9.00;;;;;11.87;58.32;102067.53;4939297;28;46677;-71
2023/05/18 03:30:10;;;;;;;;;8.67;7.00;;;;;11.78;59.21;102073.56;4939495;28;45470;-71
2023/05/18 03:32:35;;;;;;;;;10.00;10.00;;;;;10.78;58.96;101900.28;4939580;28;45379;-72
2023/05/18 03:35:02;;;;;;;;;12.67;10.33;;;;;11.61;59.48;102066.00;4939677;28;45292;-72
2023/05/18 03:37:27;;;;;;;;;12.00;10.00;;;;;11.55;59.73;102067.31;4939289;28;46366;-71
2023/05/18 03:39:54;;;;;;;;;11.00;10.00;;;;;11.24;59.99;102026.22;4939094;28;45343;-71
2023/05/18 03:42:20;;;;;;;;;11.00;11.00;;;;;11.50;59.83;102064.16;4938210;28;45553;-70
2023/05/18 03:44:45;;;;;;;;;10.67;9.67;;;;;11.37;60.12;102043.91;4939180;28;45500;-71
2023/05/18 03:47:10;;;;;;;;;9.67;7.67;;;;;11.32;60.40;102057.59;4938999;28;46491;-70
2023/05/18 03:49:36;;;;;;;;;11.33;8.33;;;;;11.22;60.72;102033.50;4938932;28;46836;-71
2023/05/18 03:52:03;;;;;;;;;10.33;10.33;;;;;11.17;60.73;102040.94;4939040;28;45300;-71
2023/05/18 03:54:28;;;;;;;;;12.33;11.00;;;;;11.24;61.04;102060.84;4937959;28;45670;-71
2023/05/18 03:56:53;;;;;;;;;11.00;10.67;;;;;11.16;60.98;102054.38;4938737;28;46085;-71
2023/05/18 03:59:18;;;;;;;;;7.33;7.00;;;;;11.11;60.69;102052.06;4939646;28;45338;-72
2023/05/18 04:01:44;;;;;;;;;10.67;10.67;;;;;11.19;60.89;102062.97;4937827;28;52423;-71
2023/05/18 04:04:16;;;;;;;;;14.33;11.00;;;;;11.11;61.33;102060.06;4938861;28;45583;-71
2023/05/18 04:06:48;;;;;;;;;11.00;9.33;;;;;11.14;61.21;102067.81;4938794;28;45830;-71
2023/05/18 04:09:16;;;;;;;;;9.67;8.33;;;;;11.14;60.88;102058.97;4938716;28;45377;-71
2023/05/18 04:11:41;;;;;;;;;15.67;11.00;;;;;11.27;60.69;102068.59;4938571;28;45312;-72
2023/05/18 04:14:09;;;;;;;;;12.33;8.67;;;;;11.20;60.88;102063.81;4938764;28;45323;-71
2023/05/18 04:16:35;;;;;;;;;11.33;10.33;;;;;11.24;60.32;102065.31;4938648;28;45798;-71
2023/05/18 04:19:02;;;;;;;;;13.67;12.33;;;;;11.16;60.77;102051.72;4938370;28;45577;-71
2023/05/18 04:21:34;;;;;;;;;11.33;9.00;;;;;11.28;60.61;102072.94;4938969;28;45391;-71
2023/05/18 04:24:04;;;;;;;;;13.67;12.00;;;;;10.92;59.90;102003.84;4939044;28;45543;-71
2023/05/18 04:26:31;;;;;;;;;12.33;10.00;;;;;11.48;60.44;102087.41;4938489;28;48395;-72
2023/05/18 04:28:59;;;;;;;;;23.00;17.00;;;;;11.52;60.04;102093.34;4939820;28;45509;-72
2023/05/18 04:31:28;;;;;;;;;14.00;14.00;;;;;11.50;60.09;102089.94;4938519;28;45307;-71
2023/05/18 04:33:57;;;;;;;;;12.67;11.00;;;;;11.23;59.96;102067.13;4938736;28;45410;-71
2023/05/18 04:36:24;;;;;;;;;10.67;10.67;;;;;11.47;60.18;102090.19;4936939;28;48018;-71
2023/05/18 04:38:51;;;;;;;;;9.00;9.00;;;;;11.46;60.40;102099.16;4938107;28;45486;-71
2023/05/18 04:41:19;;;;;;;;;13.33;12.00;;;;;11.24;59.81;102067.97;4937214;28;45367;-72
2023/05/18 04:43:46;;;;;;;;;13.00;13.00;;;;;11.46;60.17;102104.47;4938351;28;45520;-71
2023/05/18 04:46:12;;;;;;;;;14.33;13.33;;;;;11.56;59.64;102100.13;4937971;28;45802;-71
2023/05/18 04:48:38;;;;;;;;;12.00;9.67;;;;;11.07;59.80;102018.69;4938001;28;45534;-71
2023/05/18 04:51:04;;;;;;;;;10.67;9.33;;;;;11.49;59.45;102106.91;4938445;28;45352;-72
2023/05/18 04:53:32;;;;;;;;;12.67;11.00;;;;;11.26;59.10;102042.94;4938653;28;45457;-72
2023/05/18 04:55:59;;;;;;;;;15.00;12.00;;;;;11.45;58.73;102079.66;4938213;28;45923;-72
2023/05/18 04:58:26;;;;;;;;;13.67;11.67;;;;;11.59;59.38;102105.22;4938133;28;45337;-72
2023/05/18 05:00:51;;;;;;;;;9.00;9.00;;;;;11.64;59.10;102103.06;4936918;28;45490;-72
2023/05/18 05:03:17;;;;;;;;;12.00;12.00;;;;;11.57;58.79;102101.81;4938307;28;45430;-72
2023/05/18 05:05:42;;;;;;;;;12.33;12.33;;;;;11.55;58.33;102071.78;4938240;28;46054;-72
2023/05/18 05:08:07;;;;;;;;;11.00;9.33;;;;;11.85;58.75;102101.44;4937654;28;56444;-73
2023/05/18 05:10:33;;;;;;;;;14.67;12.00;;;;;11.96;57.91;102107.75;4938102;28;45186;-73
2023/05/18 05:12:58;;;;;;;;;10.33;8.33;;;;;11.98;57.54;102105.81;4953242;28;46291;-71
2023/05/18 05:15:23;;;;;;;;;10.67;9.33;;;;;11.93;57.32;102086.66;4919886;28;46525;-72
2023/05/18 05:17:49;;;;;;;;;11.00;10.00;;;;;11.50;56.88;101986.09;4959603;28;45481;-70
2023/05/18 05:20:15;;;;;;;;;12.33;11.00;;;;;12.22;57.28;102108.38;4943147;28;45556;-71
2023/05/18 05:22:40;;;;;;;;;12.00;12.00;;;;;12.27;56.83;102095.53;4960513;28;45260;-72
2023/05/18 05:25:06;;;;;;;;;11.33;10.33;;;;;12.36;56.35;102090.28;4961042;28;45462;-72
2023/05/18 05:27:32;;;;;;;;;16.33;12.67;;;;;12.58;56.10;102116.09;4961404;28;45248;-72
2023/05/18 05:29:57;;;;;;;;;14.33;11.00;;;;;12.64;55.63;102120.09;4943739;28;45290;-72
2023/05/18 05:32:22;;;;;;;;;10.33;8.67;;;;;12.67;55.44;102104.69;4960738;28;45173;-72
2023/05/18 05:34:49;;;;;;;;;12.33;12.00;;;;;12.74;55.46;102105.03;4958772;28;46634;-72
2023/05/18 05:37:15;;;;;;;;;11.00;11.00;;;;;12.79;55.26;102124.19;4955581;28;45386;-73
2023/05/18 05:39:40;;;;;;;;;13.33;12.33;;;;;12.45;55.18;102046.91;4940898;28;45513;-73
2023/05/18 05:42:07;;;;;;;;;13.00;12.00;;;;;12.88;54.67;102102.09;4939801;28;45442;-73
2023/05/18 05:44:32;;;;;;;;;21.33;15.33;;;;;13.09;54.42;102121.69;4942672;28;48247;-73
2023/05/18 05:46:58;;;;;;;;;10.67;10.67;;;;;12.51;53.86;102020.69;4942541;28;45452;-72
2023/05/18 05:49:23;;;;;;;;;15.67;12.67;;;;;13.05;54.27;102109.56;4943287;28;45280;-73
2023/05/18 05:51:48;;;;;;;;;16.00;12.00;;;;;13.17;54.28;102123.69;4960583;28;45192;-73
2023/05/18 05:54:14;;;;;;;;;14.33;10.67;;;;;13.21;54.20;102124.31;4959060;28;47438;-73
2023/05/18 05:56:39;;;;;;;;;10.33;9.00;;;;;13.16;54.03;102086.44;4957222;28;45267;-74
2023/05/18 05:59:05;;;;;;;;;9.33;8.67;;;;;13.17;53.12;102080.13;4940343;28;45922;-73
2023/05/18 06:01:31;;;;;;;;;13.33;11.00;;;;;13.23;53.03;102085.00;4960504;28;45454;-73
2023/05/18 06:03:56;;;;;;;;;21.00;18.00;;;;;13.48;53.25;102106.00;4959719;28;46413;-71
2023/05/18 06:06:21;;;;;;;;;13.67;12.33;;;;;13.72;52.71;102136.97;4940148;28;45677;-71
2023/05/18 06:08:47;;;;;;;;;17.00;14.00;;;;;13.65;52.33;102110.78;4959335;28;45346;-72
2023/05/18 06:11:12;;;;;;;;;14.67;14.33;;;;;13.89;51.95;102106.97;4958231;28;45260;-73
2023/05/18 06:13:37;;;;;;;;;11.67;10.33;;;;;14.34;51.63;102128.84;4959014;28;46456;-72
2023/05/18 06:16:03;;;;;;;;;19.00;17.33;;;;;14.47;50.37;102109.94;4942059;28;46002;-74
2023/05/18 06:18:28;;;;;;;;;17.33;12.67;;;;;14.48;50.02;102074.16;4959093;28;45591;-73
2023/05/18 06:20:53;;;;;;;;;14.00;12.67;;;;;15.04;49.25;102119.91;4959232;28;45608;-73
2023/05/18 06:23:22;;;;;;;;;16.67;13.67;;;;;15.47;48.22;102132.06;4959258;28;46300;-72
2023/05/18 06:25:48;;;;;;;;;10.67;6.67;;;;;15.84;47.26;102128.66;4959328;28;45575;-73
2023/05/18 06:28:14;;;;;;;;;10.33;10.00;;;;;15.72;46.05;102047.53;4978923;28;45268;-73
2023/05/18 06:30:40;;;;;;;;;9.00;7.67;;;;;16.66;44.94;102132.31;4973679;28;45556;-73
2023/05/18 06:33:06;;;;;;;;;17.67;13.00;;;;;15.12;44.62;101891.53;4956395;28;46400;-73
2023/05/18 06:35:32;;;;;;;;;10.00;10.00;;;;;16.67;44.74;102125.09;4957667;28;45574;-72
2023/05/18 06:37:58;;;;;;;;;11.00;10.00;;;;;16.88;44.60;102103.34;4956956;28;45423;-73
2023/05/18 06:40:23;;;;;;;;;10.00;9.33;;;;;17.32;42.74;102123.06;4958101;28;45648;-73
2023/05/18 06:42:48;;;;;;;;;14.00;11.00;;;;;17.22;42.60;102120.47;4958857;28;45628;-72
2023/05/18 06:45:14;;;;;;;;;11.00;9.00;;;;;17.37;42.26;102122.59;4959340;28;45303;-74
2023/05/18 06:47:41;;;;;;;;;6.33;6.33;;;;;17.56;42.01;102120.59;4941750;28;45393;-72
2023/05/18 06:50:06;;;;;;;;;11.33;11.33;;;;;17.72;41.80;102111.00;4958978;28;45482;-70
2023/05/18 06:52:32;;;;;;;;;13.33;12.33;;;;;18.18;40.89;102131.28;4946573;28;47068;-72
2023/05/18 06:55:00;;;;;;;;;11.00;9.67;;;;;18.57;40.67;102114.63;4958538;28;45315;-73
2023/05/18 06:57:25;;;;;;;;;14.00;12.00;;;;;19.10;38.87;102112.44;4957291;28;45557;-71
2023/05/18 06:59:52;;;;;;;;;12.00;11.67;;;;;19.71;38.14;102118.38;4959029;28;45491;-72
2023/05/18 07:02:19;;;;;;;;;10.67;8.00;;;;;19.83;37.06;102110.78;4958608;28;46519;-70
2023/05/18 07:04:44;;;;;;;;;12.33;10.33;;;;;19.73;36.85;102125.28;4958660;28;45434;-69
2023/05/18 07:07:10;;;;;;;;;13.33;12.33;;;;;19.94;37.07;102107.72;4957184;28;45692;-70
2023/05/18 07:09:35;;;;;;;;;14.67;13.00;;;;;20.08;35.57;102107.00;4958445;28;45508;-70
2023/05/18 07:12:01;;;;;;;;;13.67;12.00;;;;;19.56;36.15;102010.31;4925349;28;48411;-70
2023/05/18 07:14:26;;;;;;;;;12.67;11.00;;;;;20.36;36.26;102120.91;4939028;28;45455;-73
2023/05/18 07:16:51;;;;;;;;;9.67;9.67;;;;;20.60;35.81;102111.88;4953085;28;45410;-71
2023/05/18 07:19:17;;;;;;;;;9.33;9.33;;;;;20.97;35.37;102113.88;4941100;28;46959;-73
2023/05/18 07:21:42;;;;;;;;;12.33;11.33;;;;;21.41;34.63;102110.53;4943121;28;46525;-74
2023/05/18 07:24:07;;;;;;;;;13.00;11.67;;;;;21.88;34.38;102123.81;4938469;28;61800;-73
2023/05/18 07:26:32;;;;;;;;;11.33;9.00;;;;;22.27;33.67;102104.59;4929700;28;45426;-73
2023/05/18 07:28:58;;;;;;;;;15.00;13.33;;;;;22.51;31.69;102113.47;4948180;28;45641;-74
2023/05/18 07:31:23;;;;;;;;;13.33;9.67;;;;;22.33;32.62;102095.72;4946664;28;47360;-73
2023/05/18 07:33:49;;;;;;;;;12.67;12.00;;;;;22.73;31.89;102107.88;4938693;28;52521;-72
2023/05/18 07:36:14;;;;;;;;;11.67;11.67;;;;;22.91;31.44;102083.09;4946719;28;45475;-74
2023/05/18 07:38:39;;;;;;;;;17.00;14.67;;;;;23.16;30.72;102042.00;4958014;28;45343;-73
2023/05/18 07:41:05;;;;;;;;;12.00;9.67;;;;;23.44;29.61;102023.88;4957222;28;45496;-71
2023/05/18 07:43:30;;;;;;;;;11.33;11.33;;;;;24.06;29.39;102111.84;4957977;28;45280;-71
2023/05/18 07:45:55;;;;;;;;;9.67;8.67;;;;;24.20;29.66;102103.53;4950088;28;45464;-72
2023/05/18 07:48:21;;;;;;;;;12.00;12.00;;;;;24.17;29.29;102095.78;4954472;28;45458;-75
2023/05/18 07:50:46;;;;;;;;;10.33;9.00;;;;;24.33;29.12;102099.25;4952925;28;45563;-72
2023/05/18 07:53:11;;;;;;;;;11.00;10.33;;;;;24.52;28.67;102099.34;4940123;28;46117;-72
2023/05/18 07:55:37;;;;;;;;;15.00;13.33;;;;;24.55;27.82;102071.75;4938294;28;45444;-73
2023/05/18 07:58:02;;;;;;;;;13.67;9.33;;;;;24.52;28.09;102064.00;4938361;28;45301;-74
2023/05/18 08:00:28;;;;;;;;;10.00;9.00;;;;;24.89;27.94;102075.41;4927557;28;46678;-76
2023/05/18 08:02:53;;;;;;;;;12.67;10.67;;;;;24.80;27.99;102073.91;4957780;28;45427;-75
2023/05/18 08:05:21;;;;;;;;;9.67;8.33;;;;;24.65;28.22;102075.97;4940525;28;45355;-74
2023/05/18 08:07:47;;;;;;;;;10.00;8.67;;;;;25.10;27.41;102085.31;4939706;28;45346;-73
2023/05/18 08:10:12;;;;;;;;;14.33;10.33;;;;;25.29;27.18;102084.47;4942670;28;46540;-74
2023/05/18 08:12:37;;;;;;;;;9.00;8.00;;;;;25.14;26.78;102081.09;4954543;28;45470;-73
2023/05/18 08:15:03;;;;;;;;;11.33;11.33;;;;;24.65;26.91;102070.53;4957270;28;45287;-73
2023/05/18 08:17:28;;;;;;;;;10.00;10.00;;;;;24.34;26.80;102069.16;4937372;28;45491;-73
2023/05/18 08:19:54;;;;;;;;;9.67;8.33;;;;;24.22;28.15;102081.59;4955593;28;47899;-74
2023/05/18 08:22:20;;;;;;;;;13.00;11.00;;;;;24.30;27.99;102057.03;4956960;28;45731;-74
2023/05/18 08:24:45;;;;;;;;;11.67;11.67;;;;;24.56;27.59;102073.41;4938071;28;46470;-73
2023/05/18 08:27:11;;;;;;;;;12.33;10.67;;;;;23.90;27.37;101975.31;4949034;28;45660;-71
2023/05/18 08:29:36;;;;;;;;;8.33;7.67;;;;;24.08;27.97;102074.44;4939601;28;46583;-73
2023/05/18 08:32:04;;;;;;;;;9.33;9.33;;;;;23.64;28.86;102068.31;4956812;28;45336;-74
2023/05/18 08:34:29;;;;;;;;;15.33;11.33;;;;;23.32;29.41;102079.72;4957455;28;45332;-72
2023/05/18 08:36:55;;;;;;;;;10.67;8.33;;;;;23.09;30.01;102076.38;4939305;28;45552;-72
2023/05/18 08:39:21;;;;;;;;;15.00;12.00;;;;;22.78;30.03;102056.63;4957743;28;46787;-73
2023/05/18 08:42:00;;;;;;;;;12.00;8.00;;;;;22.69;30.58;102076.78;4948610;28;45380;-72
2023/05/18 08:44:33;;;;;;;;;11.33;8.67;;;;;21.35;30.14;101868.63;4955072;28;45308;-72
2023/05/18 08:46:59;;;;;;;;;8.67;8.00;;;;;22.15;30.40;102054.63;4946277;28;45369;-72
2023/05/18 08:49:26;;;;;;;;;11.67;10.33;;;;;22.35;30.75;102076.56;4959752;28;45567;-72
2023/05/18 08:51:56;;;;;;;;;12.00;8.00;;;;;22.82;30.36;102094.22;4960213;28;45269;-73
2023/05/18 08:54:22;;;;;;;;;8.67;8.67;;;;;22.91;28.96;102071.41;4960640;28;45406;-72
2023/05/18 08:56:48;;;;;;;;;13.67;11.67;;;;;22.73;29.33;102034.69;4960092;28;45578;-72
2023/05/18 08:59:17;;;;;;;;;11.67;9.33;;;;;23.13;29.42;102054.09;4942230;28;46646;-73
2023/05/18 09:01:43;;;;;;;;;9.00;7.67;;;;;23.06;29.14;101998.94;4948916;28;45643;-73
2023/05/18 09:04:10;;;;;;;;;12.00;10.33;;;;;23.55;28.06;102055.88;4941116;28;45978;-72
2023/05/18 09:06:36;;;;;;;;;10.00;7.00;;;;;23.57;28.87;102056.56;4945448;28;45504;-72
2023/05/18 09:09:05;;;;;;;;;11.00;10.00;;;;;23.69;28.29;102042.44;4941116;28;46798;-73
2023/05/18 09:11:32;;;;;;;;;9.67;8.67;;;;;23.53;26.97;102047.09;4932232;28;45472;-73
2023/05/18 09:14:01;;;;;;;;;12.00;11.33;;;;;23.09;28.03;102057.41;4959875;28;45319;-72
2023/05/18 09:16:27;;;;;;;;;10.33;10.33;;;;;22.73;27.84;101987.75;4959237;28;46637;-72
2023/05/18 09:18:54;;;;;;;;;15.00;12.33;;;;;23.77;27.29;102062.13;4959287;28;46873;-73
2023/05/18 09:21:20;;;;;;;;;9.00;9.00;;;;;23.63;26.87;102039.50;4935084;28;45254;-74
2023/05/18 09:23:46;;;;;;;;;11.67;10.00;;;;;24.30;26.63;102062.44;4923347;28;45491;-72
2023/05/18 09:26:12;;;;;;;;;12.67;12.67;;;;;24.94;25.83;102058.44;4945919;28;45492;-72
2023/05/18 09:28:39;;;;;;;;;11.00;11.00;;;;;25.53;24.92;102061.22;4941219;28;47245;-73
2023/05/18 09:31:07;;;;;;;;;8.33;8.33;;;;;25.98;24.83;102047.75;4958179;28;45632;-75
2023/05/18 09:33:35;;;;;;;;;12.33;12.33;;;;;26.34;24.42;102030.81;4959745;28;45501;-73
2023/05/18 09:36:00;;;;;;;;;11.00;10.33;;;;;27.72;23.46;102061.78;4960368;28;45418;-73
2023/05/18 09:38:27;;;;;;;;;9.33;9.33;;;;;28.70;21.34;102060.84;4942176;28;47694;-71
2023/05/18 09:40:52;;;;;;;;;10.00;8.00;;;;;29.00;21.03;102061.66;4942864;28;45610;-73
2023/05/18 09:43:18;;;;;;;;;11.33;10.00;;;;;28.95;20.44;102047.00;4959787;28;45569;-72
2023/05/18 09:45:45;;;;;;;;;13.00;11.67;;;;;28.21;21.50;101975.19;4959961;28;45265;-73
2023/05/18 09:48:12;;;;;;;;;12.67;11.67;;;;;28.50;21.05;102022.81;4940470;28;47549;-73
2023/05/18 09:50:37;;;;;;;;;11.67;11.00;;;;;28.28;22.29;102040.78;4942377;28;45705;-73
2023/05/18 09:53:09;;;;;;;;;10.33;8.67;;;;;28.09;21.92;102032.56;4960154;28;45332;-73
2023/05/18 09:55:52;;;;;;;;;9.67;7.00;;;;;28.13;22.02;102039.25;4957490;28;45402;-72
2023/05/18 09:58:17;;;;;;;;;10.00;9.00;;;;;27.68;22.19;102051.56;4953460;28;45477;-74
2023/05/18 10:00:52;;;;;;;;;10.00;9.00;;;;;26.76;23.20;102053.91;4940647;28;45486;-71
2023/05/18 10:03:20;;;;;;;;;10.67;10.67;;;;;25.46;23.53;102030.44;4948638;28;45494;-77
2023/05/18 10:05:46;;;;;;;;;14.33;12.00;;;;;24.61;23.58;102044.75;4940480;28;45420;-72
2023/05/18 10:08:14;;;;;;;;;10.67;10.67;;;;;23.87;25.27;102030.03;4943515;28;46540;-74
2023/05/18 10:10:44;;;;;;;;;13.67;12.00;;;;;23.44;26.17;102044.75;4948635;28;46382;-72
2023/05/18 10:13:16;;;;;;;;;12.33;10.33;;;;;22.95;26.75;102059.97;4955962;28;45549;-75
2023/05/18 10:15:47;;;;;;;;;14.00;11.67;;;;;22.08;27.91;101969.75;4934289;28;45665;-73
2023/05/18 10:18:19;;;;;;;;;13.00;11.00;;;;;22.37;27.79;102052.81;4958450;28;46496;-73
2023/05/18 10:20:47;;;;;;;;;13.67;11.67;;;;;22.02;28.14;101995.66;4971904;28;45453;-71
2023/05/18 10:23:13;;;;;;;;;12.67;12.67;;;;;22.06;27.66;102050.34;4957252;28;45359;-70
2023/05/18 10:25:41;;;;;;;;;12.33;11.33;;;;;21.56;28.85;102047.31;4959266;28;45379;-74
2023/05/18 10:28:09;;;;;;;;;14.33;13.33;;;;;21.58;29.45;102049.81;4958148;28;46556;-73
2023/05/18 10:30:36;;;;;;;;;12.67;12.67;;;;;21.41;29.13;102046.44;4955647;28;45573;-71
2023/05/18 10:33:01;;;;;;;;;13.00;12.33;;;;;21.16;29.22;102034.13;4941576;28;45510;-70
2023/05/18 10:35:28;;;;;;;;;13.67;12.67;;;;;20.88;29.84;102040.09;4959245;28;45427;-71
2023/05/18 10:37:56;;;;;;;;;13.67;13.33;;;;;20.74;29.98;102027.34;4958570;28;45344;-70
2023/05/18 10:40:23;;;;;;;;;15.33;13.33;;;;;20.74;29.41;102016.53;4941406;28;45682;-71
2023/05/18 10:42:50;;;;;;;;;12.33;10.67;;;;;20.62;28.92;102010.72;4941191;28;45458;-69
2023/05/18 10:45:16;;;;;;;;;11.67;11.33;;;;;20.39;29.11;102017.91;4959124;28;45370;-70
2023/05/18 10:47:43;;;;;;;;;12.33;12.00;;;;;20.42;29.26;102035.66;4949517;28;45503;-71
2023/05/18 10:50:09;;;;;;;;;14.33;12.67;;;;;20.39;29.49;102039.50;4922160;28;45483;-69
2023/05/18 10:52:36;;;;;;;;;12.00;11.33;;;;;20.14;29.22;102024.47;4929573;28;45628;-71
2023/05/18 10:55:03;;;;;;;;;9.00;9.00;;;;;20.05;29.61;102031.75;4941400;28;45525;-71
2023/05/18 10:57:35;;;;;;;;;15.67;12.67;;;;;19.83;30.05;102033.38;4958378;28;46452;-70
2023/05/18 11:00:02;;;;;;;;;10.67;9.33;;;;;19.53;30.51;101999.84;4958060;28;45425;-70
2023/05/18 11:02:28;;;;;;;;;15.33;13.00;;;;;19.37;31.63;102026.84;4952383;28;45609;-69
2023/05/18 11:04:55;;;;;;;;;13.33;13.33;;;;;18.52;32.15;101924.75;4954002;28;45434;-69
2023/05/18 11:07:21;;;;;;;;;15.33;14.67;;;;;19.14;32.26;102027.53;4952706;28;46161;-70
2023/05/18 11:09:47;;;;;;;;;11.67;10.67;;;;;19.09;32.07;102023.66;4925981;28;45459;-69
2023/05/18 11:12:15;;;;;;;;;13.33;12.00;;;;;19.00;31.64;102025.50;4954427;28;45485;-68
2023/05/18 11:14:52;;;;;;;;;13.33;12.00;;;;;18.58;31.73;101998.66;4921526;28;45453;-78